sensor_id;sensor_type;location;lat;lon;timestamp;temperature;humidity
76936;DHT22;65881;52.438;16.744;2023-01-19T00:01:25;-0.20;99.90
76936;DHT22;65881;52.438;16.744;2023-01-19T00:03:51;-0.20;99.90
76936;DHT22;65881;52.438;16.744;2023-01-19T00:06:19;-0.30;99.90
76936;DHT22;65881;52.438;16.744;2023-01-19T00:08:54;-0.30;99.90
76936;DHT22;65881;52.438;16.744;2023-01-19T00:11:23;-0.30;99.90
76936;DHT22;65881;52.438;16.744;2023-01-19T00:13:57;-0.30;99.90
76936;DHT22;65881;52.438;16.744;2023-01-19T00:16:23;-0.30;99.90
76936;DHT22;65881;52.438;16.744;2023-01-19T00:19:04;-0.30;99.90
76936;DHT22;65881;52.438;16.744;2023-01-19T00:21:36;-0.30;99.90
76936;DHT22;65881;52.438;16.744;2023-01-19T00:24:02;-0.30;99.90
76936;DHT22;65881;52.438;16.744;2023-01-19T00:26:27;-0.30;99.90
76936;DHT22;65881;52.438;16.744;2023-01-19T00:28:59;-0.30;99.90
76936;DHT22;65881;52.438;16.744;2023-01-19T00:31:30;-0.30;99.90
76936;DHT22;65881;52.438;16.744;2023-01-19T00:34:13;-0.30;99.90
76936;DHT22;65881;52.438;16.744;2023-01-19T00:36:54;-0.20;99.90
76936;DHT22;65881;52.438;16.744;2023-01-19T00:39:26;-0.30;99.90
76936;DHT22;65881;52.438;16.744;2023-01-19T00:41:57;-0.30;99.90
76936;DHT22;65881;52.438;16.744;2023-01-19T00:44:50;-0.30;99.90
76936;DHT22;65881;52.438;16.744;2023-01-19T00:47:22;-0.30;99.90
76936;DHT22;65881;52.438;16.744;2023-01-19T00:49:51;-0.30;99.90
76936;DHT22;65881;52.438;16.744;2023-01-19T00:52:28;-0.30;99.90
76936;DHT22;65881;52.438;16.744;2023-01-19T00:54:54;-0.40;99.90
76936;DHT22;65881;52.438;16.744;2023-01-19T00:57:19;-0.40;99.90
76936;DHT22;65881;52.438;16.744;2023-01-19T00:59:54;-0.40;99.90
76936;DHT22;65881;52.438;16.744;2023-01-19T01:02:46;-0.40;99.90
76936;DHT22;65881;52.438;16.744;2023-01-19T01:05:21;-0.40;99.90
76936;DHT22;65881;52.438;16.744;2023-01-19T01:13:54;-0.50;99.90
76936;DHT22;65881;52.438;16.744;2023-01-19T01:16:34;-0.50;99.90
76936;DHT22;65881;52.438;16.744;2023-01-19T01:19:00;-0.50;99.90
76936;DHT22;65881;52.438;16.744;2023-01-19T01:21:40;-0.50;99.90
76936;DHT22;65881;52.438;16.744;2023-01-19T01:24:24;-0.50;99.90
76936;DHT22;65881;52.438;16.744;2023-01-19T01:26:56;-0.50;99.90
76936;DHT22;65881;52.438;16.744;2023-01-19T01:29:27;-0.50;99.90
76936;DHT22;65881;52.438;16.744;2023-01-19T01:31:59;-0.50;99.90
76936;DHT22;65881;52.438;16.744;2023-01-19T01:34:34;-0.50;99.90
76936;DHT22;65881;52.438;16.744;2023-01-19T01:37:09;-0.50;99.90
76936;DHT22;65881;52.438;16.744;2023-01-19T01:39:37;-0.40;99.90
76936;DHT22;65881;52.438;16.744;2023-01-19T01:42:30;-0.50;99.90
76936;DHT22;65881;52.438;16.744;2023-01-19T01:45:34;-0.40;99.90
76936;DHT22;65881;52.438;16.744;2023-01-19T01:50:37;-0.40;99.90
76936;DHT22;65881;52.438;16.744;2023-01-19T01:53:36;-0.40;99.90
76936;DHT22;65881;52.438;16.744;2023-01-19T01:56:23;-0.40;99.90
76936;DHT22;65881;52.438;16.744;2023-01-19T01:59:50;-0.40;99.90
76936;DHT22;65881;52.438;16.744;2023-01-19T02:02:40;-0.40;99.90
76936;DHT22;65881;52.438;16.744;2023-01-19T02:11:55;-0.40;99.90
76936;DHT22;65881;52.438;16.744;2023-01-19T02:14:40;-0.40;99.90
76936;DHT22;65881;52.438;16.744;2023-01-19T02:17:21;-0.40;99.90
76936;DHT22;65881;52.438;16.744;2023-01-19T02:19:56;-0.40;99.90
76936;DHT22;65881;52.438;16.744;2023-01-19T02:22:54;-0.40;99.90
76936;DHT22;65881;52.438;16.744;2023-01-19T02:25:25;-0.40;99.90
76936;DHT22;65881;52.438;16.744;2023-01-19T02:28:07;-0.40;99.90
76936;DHT22;65881;52.438;16.744;2023-01-19T02:30:34;-0.30;99.90
76936;DHT22;65881;52.438;16.744;2023-01-19T02:45:26;-0.30;99.90
76936;DHT22;65881;52.438;16.744;2023-01-19T02:48:07;-0.30;99.90
76936;DHT22;65881;52.438;16.744;2023-01-19T02:51:12;-0.30;99.90
76936;DHT22;65881;52.438;16.744;2023-01-19T03:06:21;-0.30;99.90
76936;DHT22;65881;52.438;16.744;2023-01-19T03:09:07;-0.30;99.90
76936;DHT22;65881;52.438;16.744;2023-01-19T03:14:53;-0.30;99.90
76936;DHT22;65881;52.438;16.744;2023-01-19T03:17:49;-0.20;99.90
76936;DHT22;65881;52.438;16.744;2023-01-19T03:20:32;-0.30;99.90
76936;DHT22;65881;52.438;16.744;2023-01-19T03:23:11;-0.30;99.90
76936;DHT22;65881;52.438;16.744;2023-01-19T03:25:50;-0.20;99.90
76936;DHT22;65881;52.438;16.744;2023-01-19T03:28:28;-0.20;99.90
76936;DHT22;65881;52.438;16.744;2023-01-19T03:31:16;-0.20;99.90
76936;DHT22;65881;52.438;16.744;2023-01-19T03:33:48;-0.30;99.90
76936;DHT22;65881;52.438;16.744;2023-01-19T03:39:03;-0.30;99.90
76936;DHT22;65881;52.438;16.744;2023-01-19T03:41:33;-0.30;99.90
76936;DHT22;65881;52.438;16.744;2023-01-19T03:44:00;-0.30;99.90
76936;DHT22;65881;52.438;16.744;2023-01-19T03:46:27;-0.30;99.90
76936;DHT22;65881;52.438;16.744;2023-01-19T03:48:59;-0.30;99.90
76936;DHT22;65881;52.438;16.744;2023-01-19T03:51:25;-0.30;99.90
76936;DHT22;65881;52.438;16.744;2023-01-19T03:54:06;-0.30;99.90
76936;DHT22;65881;52.438;16.744;2023-01-19T03:56:49;-0.30;99.90
76936;DHT22;65881;52.438;16.744;2023-01-19T03:59:25;-0.20;99.90
76936;DHT22;65881;52.438;16.744;2023-01-19T04:01:51;-0.20;99.90
76936;DHT22;65881;52.438;16.744;2023-01-19T04:04:23;-0.20;99.90
76936;DHT22;65881;52.438;16.744;2023-01-19T04:06:56;-0.20;99.90
76936;DHT22;65881;52.438;16.744;2023-01-19T04:09:23;-0.20;99.90
76936;DHT22;65881;52.438;16.744;2023-01-19T04:12:09;-0.20;99.90
76936;DHT22;65881;52.438;16.744;2023-01-19T04:14:35;-0.20;99.90
76936;DHT22;65881;52.438;16.744;2023-01-19T04:17:06;-0.20;99.90
76936;DHT22;65881;52.438;16.744;2023-01-19T04:19:39;-0.20;99.90
76936;DHT22;65881;52.438;16.744;2023-01-19T04:22:17;-0.20;99.90
76936;DHT22;65881;52.438;16.744;2023-01-19T04:24:52;-0.20;99.90
76936;DHT22;65881;52.438;16.744;2023-01-19T04:27:32;-0.20;99.90
76936;DHT22;65881;52.438;16.744;2023-01-19T04:30:13;-0.10;99.90
76936;DHT22;65881;52.438;16.744;2023-01-19T04:32:39;-0.20;99.90
76936;DHT22;65881;52.438;16.744;2023-01-19T04:35:07;-0.20;99.90
76936;DHT22;65881;52.438;16.744;2023-01-19T04:37:33;-0.10;99.90
76936;DHT22;65881;52.438;16.744;2023-01-19T04:40:09;-0.10;99.90
76936;DHT22;65881;52.438;16.744;2023-01-19T04:42:35;-0.10;99.90
76936;DHT22;65881;52.438;16.744;2023-01-19T04:45:14;-0.10;99.90
76936;DHT22;65881;52.438;16.744;2023-01-19T04:47:42;-0.10;99.90
76936;DHT22;65881;52.438;16.744;2023-01-19T04:50:20;-0.10;99.90
76936;DHT22;65881;52.438;16.744;2023-01-19T04:52:58;-0.10;99.90
76936;DHT22;65881;52.438;16.744;2023-01-19T04:55:38;-0.10;99.90
76936;DHT22;65881;52.438;16.744;2023-01-19T04:58:10;-0.10;99.90
76936;DHT22;65881;52.438;16.744;2023-01-19T05:00:42;-0.10;99.90
76936;DHT22;65881;52.438;16.744;2023-01-19T05:03:23;-0.10;99.90
76936;DHT22;65881;52.438;16.744;2023-01-19T05:05:49;-0.20;99.90
76936;DHT22;65881;52.438;16.744;2023-01-19T05:08:14;-0.20;99.90
76936;DHT22;65881;52.438;16.744;2023-01-19T05:10:46;-0.20;99.90
76936;DHT22;65881;52.438;16.744;2023-01-19T05:13:18;-0.20;99.90
76936;DHT22;65881;52.438;16.744;2023-01-19T05:15:44;-0.10;99.90
76936;DHT22;65881;52.438;16.744;2023-01-19T05:18:09;-0.10;99.90
76936;DHT22;65881;52.438;16.744;2023-01-19T05:20:44;-0.10;99.90
76936;DHT22;65881;52.438;16.744;2023-01-19T05:23:15;-0.10;99.90
76936;DHT22;65881;52.438;16.744;2023-01-19T05:25:57;-0.20;99.90
76936;DHT22;65881;52.438;16.744;2023-01-19T05:28:40;-0.20;99.90
76936;DHT22;65881;52.438;16.744;2023-01-19T05:31:18;-0.20;99.90
76936;DHT22;65881;52.438;16.744;2023-01-19T05:34:04;-0.20;99.90
76936;DHT22;65881;52.438;16.744;2023-01-19T05:36:45;-0.20;99.90
76936;DHT22;65881;52.438;16.744;2023-01-19T05:39:10;-0.20;99.90
76936;DHT22;65881;52.438;16.744;2023-01-19T05:41:48;-0.20;99.90
76936;DHT22;65881;52.438;16.744;2023-01-19T05:44:17;-0.20;99.90
76936;DHT22;65881;52.438;16.744;2023-01-19T05:49:21;-0.20;99.90
76936;DHT22;65881;52.438;16.744;2023-01-19T05:51:46;-0.20;99.90
76936;DHT22;65881;52.438;16.744;2023-01-19T05:54:18;-0.20;99.90
76936;DHT22;65881;52.438;16.744;2023-01-19T05:56:44;-0.20;99.90
76936;DHT22;65881;52.438;16.744;2023-01-19T05:59:10;-0.20;99.90
76936;DHT22;65881;52.438;16.744;2023-01-19T06:01:45;-0.20;99.90
76936;DHT22;65881;52.438;16.744;2023-01-19T06:04:14;-0.20;99.90
76936;DHT22;65881;52.438;16.744;2023-01-19T06:06:42;-0.20;99.90
76936;DHT22;65881;52.438;16.744;2023-01-19T06:09:08;-0.20;99.90
76936;DHT22;65881;52.438;16.744;2023-01-19T06:11:41;-0.20;99.90
76936;DHT22;65881;52.438;16.744;2023-01-19T06:14:41;-0.20;99.90
76936;DHT22;65881;52.438;16.744;2023-01-19T06:17:17;-0.20;99.90
76936;DHT22;65881;52.438;16.744;2023-01-19T06:24:54;-0.10;99.90
76936;DHT22;65881;52.438;16.744;2023-01-19T06:27:29;-0.10;99.90
76936;DHT22;65881;52.438;16.744;2023-01-19T06:29:55;-0.10;99.90
76936;DHT22;65881;52.438;16.744;2023-01-19T06:32:24;-0.10;99.90
76936;DHT22;65881;52.438;16.744;2023-01-19T06:34:53;-0.20;99.90
76936;DHT22;65881;52.438;16.744;2023-01-19T06:37:35;-0.20;99.90
76936;DHT22;65881;52.438;16.744;2023-01-19T06:40:07;-0.10;99.90
76936;DHT22;65881;52.438;16.744;2023-01-19T06:42:49;-0.10;99.90
76936;DHT22;65881;52.438;16.744;2023-01-19T06:45:20;-0.10;99.90
76936;DHT22;65881;52.438;16.744;2023-01-19T06:48:20;-0.10;99.90
76936;DHT22;65881;52.438;16.744;2023-01-19T06:51:23;-0.10;99.90
76936;DHT22;65881;52.438;16.744;2023-01-19T06:53:59;0.00;99.90
76936;DHT22;65881;52.438;16.744;2023-01-19T06:56:42;0.00;99.90
76936;DHT22;65881;52.438;16.744;2023-01-19T06:59:23;0.00;99.90
76936;DHT22;65881;52.438;16.744;2023-01-19T07:01:49;-0.10;99.90
76936;DHT22;65881;52.438;16.744;2023-01-19T07:04:31;0.00;99.90
76936;DHT22;65881;52.438;16.744;2023-01-19T07:07:17;-0.10;99.90
76936;DHT22;65881;52.438;16.744;2023-01-19T07:09:45;0.00;99.90
76936;DHT22;65881;52.438;16.744;2023-01-19T07:12:37;0.00;99.90
76936;DHT22;65881;52.438;16.744;2023-01-19T07:15:18;-0.10;99.90
76936;DHT22;65881;52.438;16.744;2023-01-19T07:17:47;-0.10;99.90
76936;DHT22;65881;52.438;16.744;2023-01-19T07:20:13;-0.10;99.90
76936;DHT22;65881;52.438;16.744;2023-01-19T07:22:40;-0.10;99.90
76936;DHT22;65881;52.438;16.744;2023-01-19T07:25:08;-0.10;99.90
76936;DHT22;65881;52.438;16.744;2023-01-19T07:27:34;-0.10;99.90
76936;DHT22;65881;52.438;16.744;2023-01-19T07:30:11;-0.10;99.90
76936;DHT22;65881;52.438;16.744;2023-01-19T07:32:54;-0.10;99.90
76936;DHT22;65881;52.438;16.744;2023-01-19T07:35:24;-0.20;99.90
76936;DHT22;65881;52.438;16.744;2023-01-19T07:38:15;-0.20;99.90
76936;DHT22;65881;52.438;16.744;2023-01-19T07:40:48;-0.20;99.90
76936;DHT22;65881;52.438;16.744;2023-01-19T07:43:19;-0.20;99.90
76936;DHT22;65881;52.438;16.744;2023-01-19T07:46:02;-0.20;99.90
76936;DHT22;65881;52.438;16.744;2023-01-19T07:48:31;-0.20;99.90
76936;DHT22;65881;52.438;16.744;2023-01-19T07:51:09;-0.20;99.90
76936;DHT22;65881;52.438;16.744;2023-01-19T07:53:40;-0.20;99.90
76936;DHT22;65881;52.438;16.744;2023-01-19T07:56:10;-0.20;99.90
76936;DHT22;65881;52.438;16.744;2023-01-19T07:58:48;-0.20;99.90
76936;DHT22;65881;52.438;16.744;2023-01-19T08:01:19;-0.20;99.90
76936;DHT22;65881;52.438;16.744;2023-01-19T08:03:51;-0.10;99.90
76936;DHT22;65881;52.438;16.744;2023-01-19T08:15:39;-0.20;99.90
76936;DHT22;65881;52.438;16.744;2023-01-19T08:18:06;-0.20;99.90
76936;DHT22;65881;52.438;16.744;2023-01-19T08:20:34;-0.30;99.90
76936;DHT22;65881;52.438;16.744;2023-01-19T08:23:00;-0.30;99.90
76936;DHT22;65881;52.438;16.744;2023-01-19T08:25:37;-0.40;99.90
76936;DHT22;65881;52.438;16.744;2023-01-19T08:28:14;-0.40;99.90
76936;DHT22;65881;52.438;16.744;2023-01-19T08:31:00;-0.40;99.90
76936;DHT22;65881;52.438;16.744;2023-01-19T08:33:37;-0.50;99.90
76936;DHT22;65881;52.438;16.744;2023-01-19T08:36:17;-0.50;99.90
76936;DHT22;65881;52.438;16.744;2023-01-19T08:38:44;-0.40;99.90
76936;DHT22;65881;52.438;16.744;2023-01-19T08:41:11;-0.30;99.90
76936;DHT22;65881;52.438;16.744;2023-01-19T08:43:36;-0.30;99.90
76936;DHT22;65881;52.438;16.744;2023-01-19T08:46:03;-0.20;99.90
76936;DHT22;65881;52.438;16.744;2023-01-19T08:48:30;-0.20;99.90
76936;DHT22;65881;52.438;16.744;2023-01-19T08:50:56;-0.20;99.90
76936;DHT22;65881;52.438;16.744;2023-01-19T08:53:30;-0.30;99.90
76936;DHT22;65881;52.438;16.744;2023-01-19T08:55:57;-0.30;99.90
76936;DHT22;65881;52.438;16.744;2023-01-19T08:58:28;-0.40;99.90
76936;DHT22;65881;52.438;16.744;2023-01-19T09:00:58;-0.50;99.90
76936;DHT22;65881;52.438;16.744;2023-01-19T09:03:43;-0.40;99.90
76936;DHT22;65881;52.438;16.744;2023-01-19T09:06:12;-0.40;99.90
76936;DHT22;65881;52.438;16.744;2023-01-19T09:08:39;-0.40;99.90
76936;DHT22;65881;52.438;16.744;2023-01-19T09:11:20;-0.40;99.90
76936;DHT22;65881;52.438;16.744;2023-01-19T09:13:52;-0.50;99.90
76936;DHT22;65881;52.438;16.744;2023-01-19T09:16:38;-0.40;99.90
76936;DHT22;65881;52.438;16.744;2023-01-19T09:19:04;-0.40;99.90
76936;DHT22;65881;52.438;16.744;2023-01-19T09:21:33;-0.30;99.90
76936;DHT22;65881;52.438;16.744;2023-01-19T09:24:01;-0.30;99.30
76936;DHT22;65881;52.438;16.744;2023-01-19T09:26:29;-0.30;98.90
76936;DHT22;65881;52.438;16.744;2023-01-19T09:29:10;-0.30;98.90
76936;DHT22;65881;52.438;16.744;2023-01-19T09:31:48;-0.30;99.10
76936;DHT22;65881;52.438;16.744;2023-01-19T09:34:33;-0.20;98.60
76936;DHT22;65881;52.438;16.744;2023-01-19T09:36:59;-0.30;98.60
76936;DHT22;65881;52.438;16.744;2023-01-19T09:39:25;-0.30;99.00
76936;DHT22;65881;52.438;16.744;2023-01-19T09:44:47;-0.20;99.10
76936;DHT22;65881;52.438;16.744;2023-01-19T09:47:15;-0.20;99.00
76936;DHT22;65881;52.438;16.744;2023-01-19T09:50:00;-0.20;99.20
76936;DHT22;65881;52.438;16.744;2023-01-19T09:52:30;-0.10;99.10
76936;DHT22;65881;52.438;16.744;2023-01-19T09:55:29;-0.10;98.80
76936;DHT22;65881;52.438;16.744;2023-01-19T09:57:55;-0.10;98.30
76936;DHT22;65881;52.438;16.744;2023-01-19T10:00:22;-0.10;98.50
76936;DHT22;65881;52.438;16.744;2023-01-19T10:03:24;-0.10;98.80
76936;DHT22;65881;52.438;16.744;2023-01-19T10:06:00;-0.20;98.70
76936;DHT22;65881;52.438;16.744;2023-01-19T10:08:54;-0.20;98.90
76936;DHT22;65881;52.438;16.744;2023-01-19T10:20:52;-0.10;98.50
76936;DHT22;65881;52.438;16.744;2023-01-19T10:23:48;-0.30;98.30
76936;DHT22;65881;52.438;16.744;2023-01-19T10:26:41;-0.30;97.80
76936;DHT22;65881;52.438;16.744;2023-01-19T10:29:32;-0.30;98.00
76936;DHT22;65881;52.438;16.744;2023-01-19T10:32:35;-0.40;98.00
76936;DHT22;65881;52.438;16.744;2023-01-19T10:35:15;-0.40;98.40
76936;DHT22;65881;52.438;16.744;2023-01-19T10:37:59;-0.40;98.00
76936;DHT22;65881;52.438;16.744;2023-01-19T10:40:41;-0.30;98.00
76936;DHT22;65881;52.438;16.744;2023-01-19T10:46:04;-0.20;97.60
76936;DHT22;65881;52.438;16.744;2023-01-19T10:48:42;-0.20;97.60
76936;DHT22;65881;52.438;16.744;2023-01-19T10:51:10;-0.20;97.10
76936;DHT22;65881;52.438;16.744;2023-01-19T10:53:36;-0.30;97.10
76936;DHT22;65881;52.438;16.744;2023-01-19T10:56:19;-0.20;98.00
76936;DHT22;65881;52.438;16.744;2023-01-19T10:58:47;-0.20;97.30
76936;DHT22;65881;52.438;16.744;2023-01-19T11:01:32;-0.20;97.50
76936;DHT22;65881;52.438;16.744;2023-01-19T11:07:34;-0.10;97.10
76936;DHT22;65881;52.438;16.744;2023-01-19T11:10:23;0.00;96.40
76936;DHT22;65881;52.438;16.744;2023-01-19T11:22:51;-0.50;95.40
76936;DHT22;65881;52.438;16.744;2023-01-19T11:26:05;-0.50;96.00
76936;DHT22;65881;52.438;16.744;2023-01-19T11:28:34;-0.40;95.10
76936;DHT22;65881;52.438;16.744;2023-01-19T11:34:34;-0.10;94.30
76936;DHT22;65881;52.438;16.744;2023-01-19T11:39:59;0.40;92.50
76936;DHT22;65881;52.438;16.744;2023-01-19T11:42:44;0.60;91.70
76936;DHT22;65881;52.438;16.744;2023-01-19T11:45:16;0.60;90.70
76936;DHT22;65881;52.438;16.744;2023-01-19T11:48:00;0.70;89.30
76936;DHT22;65881;52.438;16.744;2023-01-19T11:50:43;0.80;88.60
76936;DHT22;65881;52.438;16.744;2023-01-19T11:53:21;1.00;87.00
76936;DHT22;65881;52.438;16.744;2023-01-19T11:56:09;1.00;85.40
76936;DHT22;65881;52.438;16.744;2023-01-19T11:58:40;1.10;85.40
76936;DHT22;65881;52.438;16.744;2023-01-19T12:01:37;1.20;86.40
76936;DHT22;65881;52.438;16.744;2023-01-19T12:04:43;1.20;87.10
76936;DHT22;65881;52.438;16.744;2023-01-19T12:07:18;1.10;87.50
76936;DHT22;65881;52.438;16.744;2023-01-19T12:09:54;1.10;85.80
76936;DHT22;65881;52.438;16.744;2023-01-19T12:12:29;1.00;84.70
76936;DHT22;65881;52.438;16.744;2023-01-19T12:15:09;1.00;85.60
76936;DHT22;65881;52.438;16.744;2023-01-19T12:17:57;1.00;86.20
76936;DHT22;65881;52.438;16.744;2023-01-19T12:20:41;1.20;84.70
76936;DHT22;65881;52.438;16.744;2023-01-19T12:29:31;1.20;85.50
76936;DHT22;65881;52.438;16.744;2023-01-19T12:37:35;1.00;83.10
76936;DHT22;65881;52.438;16.744;2023-01-19T12:40:23;1.10;82.90
76936;DHT22;65881;52.438;16.744;2023-01-19T12:43:13;0.80;84.70
76936;DHT22;65881;52.438;16.744;2023-01-19T12:45:42;0.80;84.30
76936;DHT22;65881;52.438;16.744;2023-01-19T12:48:23;0.80;84.90
76936;DHT22;65881;52.438;16.744;2023-01-19T12:50:50;0.80;86.10
76936;DHT22;65881;52.438;16.744;2023-01-19T12:53:25;0.80;85.80
76936;DHT22;65881;52.438;16.744;2023-01-19T12:56:03;0.70;86.40
76936;DHT22;65881;52.438;16.744;2023-01-19T12:58:47;0.80;86.70
76936;DHT22;65881;52.438;16.744;2023-01-19T13:01:16;0.80;86.90
76936;DHT22;65881;52.438;16.744;2023-01-19T13:09:30;0.60;84.50
76936;DHT22;65881;52.438;16.744;2023-01-19T13:12:19;0.60;85.70
76936;DHT22;65881;52.438;16.744;2023-01-19T13:14:45;0.60;85.60
76936;DHT22;65881;52.438;16.744;2023-01-19T13:17:32;0.70;84.50
76936;DHT22;65881;52.438;16.744;2023-01-19T13:20:25;0.60;84.40
76936;DHT22;65881;52.438;16.744;2023-01-19T13:25:50;0.50;84.90
76936;DHT22;65881;52.438;16.744;2023-01-19T13:28:18;0.50;85.40
76936;DHT22;65881;52.438;16.744;2023-01-19T13:31:07;0.50;86.00
76936;DHT22;65881;52.438;16.744;2023-01-19T13:33:54;0.40;86.90
76936;DHT22;65881;52.438;16.744;2023-01-19T13:36:33;0.40;86.00
76936;DHT22;65881;52.438;16.744;2023-01-19T13:39:04;0.30;86.10
76936;DHT22;65881;52.438;16.744;2023-01-19T13:41:36;0.30;85.60
76936;DHT22;65881;52.438;16.744;2023-01-19T13:44:34;0.30;86.30
76936;DHT22;65881;52.438;16.744;2023-01-19T13:47:18;0.20;87.40
76936;DHT22;65881;52.438;16.744;2023-01-19T13:49:45;0.10;88.00
76936;DHT22;65881;52.438;16.744;2023-01-19T13:52:20;0.10;87.40
76936;DHT22;65881;52.438;16.744;2023-01-19T13:54:59;0.00;87.80
76936;DHT22;65881;52.438;16.744;2023-01-19T13:57:45;0.10;87.40
76936;DHT22;65881;52.438;16.744;2023-01-19T14:02:40;0.00;87.60
76936;DHT22;65881;52.438;16.744;2023-01-19T14:05:14;0.00;87.90
76936;DHT22;65881;52.438;16.744;2023-01-19T14:07:40;0.00;87.90
76936;DHT22;65881;52.438;16.744;2023-01-19T14:10:12;0.00;88.50
76936;DHT22;65881;52.438;16.744;2023-01-19T14:12:38;0.00;88.70
76936;DHT22;65881;52.438;16.744;2023-01-19T14:15:07;0.00;88.10
76936;DHT22;65881;52.438;16.744;2023-01-19T14:17:37;-0.10;88.50
76936;DHT22;65881;52.438;16.744;2023-01-19T14:20:03;-0.10;89.50
76936;DHT22;65881;52.438;16.744;2023-01-19T14:22:42;-0.10;89.20
76936;DHT22;65881;52.438;16.744;2023-01-19T14:31:30;-0.40;90.40
76936;DHT22;65881;52.438;16.744;2023-01-19T14:37:30;-0.40;91.30
76936;DHT22;65881;52.438;16.744;2023-01-19T14:45:25;-0.50;91.50
76936;DHT22;65881;52.438;16.744;2023-01-19T14:48:11;-0.60;92.00
76936;DHT22;65881;52.438;16.744;2023-01-19T14:50:40;-0.60;92.20
76936;DHT22;65881;52.438;16.744;2023-01-19T14:53:23;-0.70;92.40
76936;DHT22;65881;52.438;16.744;2023-01-19T14:58:50;-0.70;92.40
76936;DHT22;65881;52.438;16.744;2023-01-19T15:01:16;-0.70;92.80
76936;DHT22;65881;52.438;16.744;2023-01-19T15:03:41;-0.90;92.90
76936;DHT22;65881;52.438;16.744;2023-01-19T15:06:14;-0.90;93.30
76936;DHT22;65881;52.438;16.744;2023-01-19T15:08:41;-1.00;93.40
76936;DHT22;65881;52.438;16.744;2023-01-19T15:11:34;-1.00;93.60
76936;DHT22;65881;52.438;16.744;2023-01-19T15:13:59;-1.00;93.80
76936;DHT22;65881;52.438;16.744;2023-01-19T15:16:27;-1.00;93.90
76936;DHT22;65881;52.438;16.744;2023-01-19T15:21:27;-1.10;94.10
76936;DHT22;65881;52.438;16.744;2023-01-19T15:23:54;-1.10;94.20
76936;DHT22;65881;52.438;16.744;2023-01-19T15:26:23;-1.20;94.40
76936;DHT22;65881;52.438;16.744;2023-01-19T15:28:50;-1.30;94.50
76936;DHT22;65881;52.438;16.744;2023-01-19T15:31:24;-1.30;94.90
76936;DHT22;65881;52.438;16.744;2023-01-19T15:33:56;-1.30;95.10
76936;DHT22;65881;52.438;16.744;2023-01-19T15:36:22;-1.30;95.00
76936;DHT22;65881;52.438;16.744;2023-01-19T15:38:57;-1.30;94.80
76936;DHT22;65881;52.438;16.744;2023-01-19T15:41:29;-1.30;94.80
76936;DHT22;65881;52.438;16.744;2023-01-19T15:44:14;-1.30;94.90
76936;DHT22;65881;52.438;16.744;2023-01-19T15:46:52;-1.30;94.90
76936;DHT22;65881;52.438;16.744;2023-01-19T15:49:33;-1.30;94.30
76936;DHT22;65881;52.438;16.744;2023-01-19T15:52:05;-1.40;94.60
76936;DHT22;65881;52.438;16.744;2023-01-19T15:54:55;-1.50;94.80
76936;DHT22;65881;52.438;16.744;2023-01-19T15:57:21;-1.50;95.10
76936;DHT22;65881;52.438;16.744;2023-01-19T16:06:52;-1.50;94.90
76936;DHT22;65881;52.438;16.744;2023-01-19T16:09:18;-1.50;95.10
76936;DHT22;65881;52.438;16.744;2023-01-19T16:11:45;-1.60;95.40
76936;DHT22;65881;52.438;16.744;2023-01-19T16:14:11;-1.60;95.50
76936;DHT22;65881;52.438;16.744;2023-01-19T16:16:49;-1.60;95.60
76936;DHT22;65881;52.438;16.744;2023-01-19T16:19:14;-1.60;95.70
76936;DHT22;65881;52.438;16.744;2023-01-19T16:21:40;-1.60;95.40
76936;DHT22;65881;52.438;16.744;2023-01-19T16:24:30;-1.60;95.20
76936;DHT22;65881;52.438;16.744;2023-01-19T16:26:56;-1.60;95.40
76936;DHT22;65881;52.438;16.744;2023-01-19T16:29:41;-1.60;95.50
76936;DHT22;65881;52.438;16.744;2023-01-19T16:32:34;-1.70;95.60
76936;DHT22;65881;52.438;16.744;2023-01-19T16:35:04;-1.70;95.50
76936;DHT22;65881;52.438;16.744;2023-01-19T16:37:42;-1.70;95.50
76936;DHT22;65881;52.438;16.744;2023-01-19T16:42:49;-1.90;95.90
76936;DHT22;65881;52.438;16.744;2023-01-19T16:45:18;-1.90;95.70
76936;DHT22;65881;52.438;16.744;2023-01-19T16:48:18;-1.90;95.60
76936;DHT22;65881;52.438;16.744;2023-01-19T16:51:09;-2.00;95.70
76936;DHT22;65881;52.438;16.744;2023-01-19T16:53:37;-2.10;96.70
76936;DHT22;65881;52.438;16.744;2023-01-19T16:56:32;-2.10;97.00
76936;DHT22;65881;52.438;16.744;2023-01-19T16:58:58;-2.10;96.90
76936;DHT22;65881;52.438;16.744;2023-01-19T17:01:25;-2.10;96.20
76936;DHT22;65881;52.438;16.744;2023-01-19T17:04:25;-2.10;96.10
76936;DHT22;65881;52.438;16.744;2023-01-19T17:07:22;-2.20;96.20
76936;DHT22;65881;52.438;16.744;2023-01-19T17:10:10;-2.20;96.70
76936;DHT22;65881;52.438;16.744;2023-01-19T17:13:01;-2.20;96.50
76936;DHT22;65881;52.438;16.744;2023-01-19T17:15:44;-2.20;96.50
76936;DHT22;65881;52.438;16.744;2023-01-19T17:18:22;-2.20;96.90
76936;DHT22;65881;52.438;16.744;2023-01-19T17:20:48;-2.20;97.10
76936;DHT22;65881;52.438;16.744;2023-01-19T17:23:13;-2.20;97.20
76936;DHT22;65881;52.438;16.744;2023-01-19T17:25:39;-2.20;97.20
76936;DHT22;65881;52.438;16.744;2023-01-19T17:28:05;-2.20;97.10
76936;DHT22;65881;52.438;16.744;2023-01-19T17:30:31;-2.30;96.60
76936;DHT22;65881;52.438;16.744;2023-01-19T17:32:57;-2.40;96.60
76936;DHT22;65881;52.438;16.744;2023-01-19T17:35:23;-2.40;96.30
76936;DHT22;65881;52.438;16.744;2023-01-19T17:37:54;-2.50;96.50
76936;DHT22;65881;52.438;16.744;2023-01-19T17:40:21;-2.50;96.70
76936;DHT22;65881;52.438;16.744;2023-01-19T17:42:58;-2.50;96.60
76936;DHT22;65881;52.438;16.744;2023-01-19T17:45:33;-2.60;96.40
76936;DHT22;65881;52.438;16.744;2023-01-19T17:48:11;-2.60;96.20
76936;DHT22;65881;52.438;16.744;2023-01-19T17:50:46;-2.70;96.50
76936;DHT22;65881;52.438;16.744;2023-01-19T17:53:21;-2.70;96.80
76936;DHT22;65881;52.438;16.744;2023-01-19T17:55:47;-2.70;97.00
76936;DHT22;65881;52.438;16.744;2023-01-19T17:58:49;-2.70;97.30
76936;DHT22;65881;52.438;16.744;2023-01-19T18:01:18;-2.70;97.20
76936;DHT22;65881;52.438;16.744;2023-01-19T18:04:02;-2.70;97.00
76936;DHT22;65881;52.438;16.744;2023-01-19T18:06:56;-2.70;97.50
76936;DHT22;65881;52.438;16.744;2023-01-19T18:09:26;-2.80;97.90
76936;DHT22;65881;52.438;16.744;2023-01-19T18:14:26;-2.70;98.00
76936;DHT22;65881;52.438;16.744;2023-01-19T18:16:52;-2.70;98.10
76936;DHT22;65881;52.438;16.744;2023-01-19T18:19:17;-2.70;98.10
76936;DHT22;65881;52.438;16.744;2023-01-19T18:21:46;-2.60;98.10
76936;DHT22;65881;52.438;16.744;2023-01-19T18:24:12;-2.60;97.80
76936;DHT22;65881;52.438;16.744;2023-01-19T18:26:38;-2.60;97.50
76936;DHT22;65881;52.438;16.744;2023-01-19T18:29:32;-2.60;97.60
76936;DHT22;65881;52.438;16.744;2023-01-19T18:32:28;-2.60;97.30
76936;DHT22;65881;52.438;16.744;2023-01-19T18:35:28;-2.70;97.00
76936;DHT22;65881;52.438;16.744;2023-01-19T18:44:48;-2.80;97.20
76936;DHT22;65881;52.438;16.744;2023-01-19T18:50:48;-2.90;97.80
76936;DHT22;65881;52.438;16.744;2023-01-19T18:53:20;-2.90;97.80
76936;DHT22;65881;52.438;16.744;2023-01-19T18:56:02;-2.50;99.60